Terminal Aerodrome Forecast
Issued by NWS

Home | Current Version | Previous Version | Text Only | Print | Product List | Glossary On
Versions: 1 2 3 4 5 6 7 8 9 10 11 12 13 14 15 16 17 18
000
FTUS44 KBMX 172340
TAFTCL
TAF
KTCL 172340Z 1800/1824 05004KT 5SM BR BKN007 OVC012
     FM180600 07003KT 3SM BR OVC004
     FM181500 10003KT P6SM OVC015
     FM181800 10005KT P6SM BKN015 OVC035=

USA.gov is the U.S. government's official web portal to all federal, state and local government web resources and services.